ADDS METAR Data INFO
IDs: Format: Raw Decoded Include TAF

Data at: 0214 UTC 18 Jan 2018

METAR for:KPBI (Palm Beach Intl, FL, US)
Text:KPBI 180153Z 32013KT 10SM FEW120 SCT250 18/10 A3021 RMK AO2 SLP230 T01830094
Temperature: 18.3°C ( 65°F)
Dewpoint: 9.4°C ( 49°F) [RH = 56%]
Pressure (altimeter):30.21 inches Hg (1023.1 mb) [Sea level pressure: 1023.0 mb]
Winds:from the NW (320 degrees) at 15 MPH (13 knots; 6.7 m/s)
Visibility:10 or more sm (16+ km)
Ceiling:at least 12,000 feet AGL
Clouds: few clouds at 12000 feet AGL, scattered clouds at 25000 feet AGL